Nearby METAR Reports - 80 Mile Radius
Meteorological Terminal Air Report (METAR)


KBWI - Balto/Wash Intl Airport, Maryland
Distance from station: S 5mi, 8km
Updated: Tue, 16-Jul-2019 7:54am EDT
Partly Cloudy
Partly Cloudy
 Wind from calm
Wind: Calm
Temperature: 79°F , 26°C
Dew Point: 70°F , 21°C
Humidity: 74%
Barometer: 30.09 inHg , 1019 hPa
Clouds: Partly Cloudy
Visibility: 10 miles , 16 km
Cloud details: Few Clouds 14000 ft
Partly Cloudy 25000 ft
2019/07/16 11:54 KBWI 161154Z 00000KT 10SM FEW140 SCT250 26/21 A3009 RMK AO2 SLP188 T02560211 10256 20206 51012
KDMH - Baltimore/Dwntwn, Maryland
Distance from station: NE 5mi, 9km
Updated: Tue, 16-Jul-2019 7:54am EDT

 
Temperature: 82°F , 28°C
Heat Index: 86°F , 30°C
Dew Point: 70°F , 21°C
Humidity: 66%
Barometer: 30.09 inHg , 1019 hPa
2019/07/16 11:54 KDMH 161154Z AUTO 28/21 A3009 RMK AO1 SLP190 T02780211 10278 20244 51011
KFME - Fort Meade/Tipton AAF, Maryland
Distance from station: SSW 11mi, 18km
Updated: Tue, 16-Jul-2019 7:42am EDT

 Wind from calm
Wind: Calm
Temperature: 70°F , 21°C
Dew Point: 68°F , 20°C
Humidity: 94%
Barometer: 30.12 inHg , 1020 hPa
Visibility: 10 miles , 16 km
2019/07/16 11:42 KFME 161142Z AUTO 00000KT 10SM 21/20 A3012 RMK AO1
 
KMTN - Balto/Martin State Airport, Maryland
Distance from station: ENE 16mi, 26km
Updated: Tue, 16-Jul-2019 7:45am EDT
Partly Cloudy
Partly Cloudy
 Wind from calm
Wind: Calm
Temperature: 75°F , 24°C
Dew Point: 73°F , 23°C
Humidity: 94%
Barometer: 30.10 inHg , 1019.3 hPa
Clouds: Partly Cloudy
Visibility: 10 miles , 16 km
Cloud details: Partly Cloudy 20000 ft
2019/07/16 11:45 KMTN 161145Z 00000KT 10SM SCT200 24/23 A3010
KCGS - College Park Airport, Maryland
Distance from station: SSW 21mi, 34km
Updated: Tue, 16-Jul-2019 7:43am EDT
Clear
Clear
 Wind from calm
Wind: Calm
Barometer: 30.09 inHg , 1019 hPa
Clouds: Clear
Visibility: 10 miles , 16 km
2019/07/16 11:43 KCGS 161143Z AUTO 00000KT 10SM CLR A3009 RMK AO1
KNAK - Annapolis/Naval Academy, Maryland
Distance from station: SE 21mi, 34km
Updated: Tue, 16-Jul-2019 7:54am EDT
Clear
Clear
 Wind from varies
Wind: varies 3 mph , 6 km/h
Temperature: 84°F , 29°C
Heat Index: 92°F , 33°C
Dew Point: 75°F , 24°C
Humidity: 74%
Barometer: 30.09 inHg , 1019 hPa
Clouds: Clear
Visibility: 10 miles , 16 km
2019/07/16 11:54 KNAK 161154Z AUTO VRB03KT 10SM CLR 29/24 A3009 RMK AO2 SLP190 T02890244 10289 20256 51014
 
KGAI - Gaithersburg/Montgomery Co Airpark, Maryland
Distance from station: W 26mi, 41km
Updated: Tue, 16-Jul-2019 7:56am EDT
Clear
Clear
 Wind from calm
Wind: Calm
Temperature: 75°F , 24°C
Dew Point: 70°F , 21°C
Humidity: 83%
Barometer: 30.13 inHg , 1020.3 hPa
Clouds: Clear
Visibility: 10 miles , 16 km
2019/07/16 11:56 KGAI 161156Z AUTO 00000KT 10SM CLR 24/21 A3013 RMK AO2 SLP210 6//// 7//// T02390206 10239 20189 51014 PNO $
KW29 - Stevensville/Bay Bridge Airport, Maryland
Distance from station: SE 26mi, 42km
Updated: Tue, 16-Jul-2019 7:40am EDT
Clear
Clear
 Wind from S
Wind: S 7 mph , 11 km/h
Temperature: 82°F , 28°C
Heat Index: 90°F , 32°C
Dew Point: 77°F , 25°C
Humidity: 84%
Barometer: 30.09 inHg , 1019 hPa
Clouds: Clear
Visibility: 10 miles , 16 km
2019/07/16 11:40 KW29 161140Z AUTO 17006KT 10SM CLR 28/25 A3009 RMK AO2
KDMW - Carroll Co Regional Airport, Maryland
Distance from station: NNW 30mi, 48km
Updated: Tue, 16-Jul-2019 7:40am EDT
Clear
Clear
 Wind from SSW
Wind: SSW 5 mph , 7 km/h
Temperature: 77°F , 25°C
Dew Point: 70°F , 21°C
Humidity: 79%
Barometer: 30.12 inHg , 1020 hPa
Clouds: Clear
Visibility: 10 miles , 16 km
2019/07/16 11:40 KDMW 161140Z AUTO 20004KT 10SM CLR 25/21 A3012 RMK AO2
 
KADW - Andrews AFB, Maryland
Distance from station: SSW 30mi, 49km
Updated: Tue, 16-Jul-2019 6:56am EDT

 
2019/07/16 10:56 KADW 161056Z AUTO M M M M M M RMK AO2 SLPNO RVRNO PWINO PNO FZRANO VISNO RWY19R $
KAPG - Aberdeen/Phillip AAF, Maryland
Distance from station: ENE 32mi, 52km
Updated: Tue, 16-Jul-2019 6:50am EDT
Partly Cloudy
Partly Cloudy
 Wind from calm
Wind: Calm
Temperature: 66°F , 19°C
Dew Point: 66°F , 19°C
Humidity: 100%
Barometer: 30.09 inHg , 1019 hPa
Clouds: Partly Cloudy
Visibility: M 10 miles , 16 km
Cloud details: Partly Cloudy 25000 ft
2019/07/16 10:50 KAPG 161050Z 00000KT 10SM SCT250 19/19 A3009 RMK SLP192
KDCA - Washington/Natl Airport, Washington D.C.
Distance from station: SW 32mi, 52km
Updated: Tue, 16-Jul-2019 7:52am EDT
Partly Cloudy
Partly Cloudy
 Wind from calm
Wind: Calm
Temperature: 79°F , 26°C
Dew Point: 70°F , 21°C
Humidity: 74%
Barometer: 30.10 inHg , 1019.3 hPa
Clouds: Partly Cloudy
Visibility: 10 miles , 16 km
Cloud details: Partly Cloudy 25000 ft
2019/07/16 11:52 KDCA 161152Z 00000KT 10SM SCT250 26/21 A3010 RMK AO2 SLP193 T02560211 10261 20239 53012
 
KFDK - Frederick Municipal Airport, Maryland
Distance from station: WNW 38mi, 61km
Updated: Tue, 16-Jul-2019 7:47am EDT
Clear
Clear
 Wind from calm
Wind: Calm
Temperature: 72°F , 22°C
Dew Point: 68°F , 20°C
Humidity: 88%
Barometer: 30.14 inHg , 1020.7 hPa
Clouds: Clear
Visibility: 10 miles , 16 km
2019/07/16 11:47 KFDK 161147Z 00000KT 10SM SKC 22/20 A3014
KDAA - Fort Belvoir/Davison AAF, Virginia
Distance from station: SW 44mi, 71km
Updated: Tue, 16-Jul-2019 7:56am EDT
Clear
Clear
 Wind from calm
Wind: Calm
Temperature: 77°F , 25°C
Dew Point: 73°F , 23°C
Humidity: 89%
Barometer: 30.10 inHg , 1019.3 hPa
Clouds: Clear
Visibility: 10 miles , 16 km
2019/07/16 11:56 KDAA 161156Z AUTO 00000KT 10SM CLR 25/23 A3010 RMK AO2 SLP195 T02490226 10
KESN - Easton/Newnam Field Airport, Maryland
Distance from station: SE 45mi, 73km
Updated: Tue, 16-Jul-2019 7:45am EDT
Partly Cloudy
Partly Cloudy
 Wind from SSE
Wind: SSE 8 mph , 13 km/h
Temperature: 81°F , 27°C
Heat Index: 87°F , 31°C
Dew Point: 75°F , 24°C
Humidity: 84%
Barometer: 30.13 inHg , 1020.3 hPa
Clouds: Partly Cloudy
Visibility: 10 miles , 16 km
Cloud details: Partly Cloudy 25000 ft
2019/07/16 11:45 KESN 161145Z 15007KT 10SM SCT250 27/24 A3013
 
KIAD - Wash DC/Dulles Intl, Virginia
Distance from station: WSW 45mi, 73km
Updated: Tue, 16-Jul-2019 7:52am EDT
Few Clouds
Few Clouds
 Wind from NE
Wind: NE 3 mph , 6 km/h
Temperature: 75°F , 24°C
Dew Point: 68°F , 20°C
Humidity: 78%
Barometer: 30.11 inHg , 1019.6 hPa
Clouds: Few Clouds
Visibility: 10 miles , 16 km
Cloud details: Few Clouds 18000 ft
Few Clouds 25000 ft
2019/07/16 11:52 KIAD 161152Z 04003KT 10SM FEW180 FEW250 24/20 A3011 RMK AO2 SLP191 T02440200 10244 20206 53012
KJYO - Leesburg/Godfrey Field, Virginia
Distance from station: WSW 48mi, 77km
Updated: Tue, 16-Jul-2019 7:35am EDT
Clear
Clear
 Wind from calm
Wind: Calm
Temperature: 73°F , 23°C
Dew Point: 68°F , 20°C
Humidity: 83%
Barometer: 30.13 inHg , 1020.3 hPa
Clouds: Clear
Visibility: 10 miles , 16 km
2019/07/16 11:35 KJYO 161135Z AUTO 00000KT 10SM CLR 23/20 A3013 RMK AO2
KTHV - York Airport, Pennsylvania
Distance from station: NNW 48mi, 77km
Updated: Tue, 16-Jul-2019 7:53am EDT
Clear
Clear
 Wind from calm
Wind: Calm
Temperature: 73°F , 23°C
Dew Point: 66°F , 19°C
Humidity: 78%
Barometer: 30.11 inHg , 1019.6 hPa
Clouds: Clear
Visibility: 9 miles , 14 km
2019/07/16 11:53 KTHV 161153Z AUTO 00000KT 9SM CLR 23/19 A3011 RMK AO2 SLP194 T02280189 10228 20161 53008
 
KRSP - Naval Support Fac Thurmont, Maryland, USA
Distance from station: NW 50mi, 81km
Updated: Sat, 18-May-2019 1:54pm EDT
NOT Current

 
2019/05/18 17:54 KRSP 181754Z AUTO VRB04KTLS21/16 A3004 RMK AO2 SLP168 T02110161 10228 20172 $
KRYT - Fountain Dale Airport, Pennsylvania
Distance from station: NW 52mi, 84km
Updated: Mon, 13-Nov-2017 7:53am EST
NOT Current
Mist, Overcast
Mist, Overcast
 Wind from calm
Wind: Calm
Temperature: 37°F , 3°C
Dew Point: 34°F , 1°C
Humidity: 87%
Barometer: 30.31 inHg , 1026.4 hPa
Summary: Mist
Clouds: Overcast
Visibility: 5 miles , 8 km
Cloud details: Overcast 700 ft
2017/11/13 12:53 KRYT 131253Z AUTO 00000KT 5SM BR OVC007 03/01 A3031 RMK AO2 SLP275 T00280011 TSNO $
KHEF - Manassas Municipal Airport, Virginia
Distance from station: SW 57mi, 91km
Updated: Tue, 16-Jul-2019 7:56am EDT
Clear
Clear
 Wind from calm
Wind: Calm
Temperature: 75°F , 24°C
Dew Point: 72°F , 22°C
Humidity: 89%
Barometer: 30.11 inHg , 1019.6 hPa
Clouds: Clear
Visibility: 10 miles , 16 km
2019/07/16 11:56 KHEF 161156Z 00000KT 10SM CLR 24/22 A3011 RMK AO2 SLP203 6//// 7//// T02440217 10244 20211 53012 PNO $
 
KNYG - Quantico Marine Corps Air Fac, Virginia
Distance from station: SSW 60mi, 96km
Updated: Tue, 16-Jul-2019 7:56am EDT
Partly Cloudy
Partly Cloudy
 Wind from NW
Wind: NW 3 mph , 6 km/h
Temperature: 75°F , 24°C
Dew Point: 73°F , 23°C
Humidity: 94%
Barometer: 30.10 inHg , 1019.3 hPa
Clouds: Partly Cloudy
Visibility: 10 miles , 16 km
Cloud details: Partly Cloudy 10000 ft
Partly Cloudy 15000 ft
2019/07/16 11:56 KNYG 161156Z 32003KT 10SM SCT100 SCT150 24/23 A3010 RMK AO2 SLP194 T02440228 10244 20228 53012
KCGE - Cambridge-Dorchester Reg Airport, Maryland
Distance from station: SE 60mi, 97km
Updated: Tue, 16-Jul-2019 7:45am EDT
Clear
Clear
 Wind from varies
Wind: varies 3 mph , 6 km/h
Temperature: 77°F , 25°C
Dew Point: 75°F , 24°C
Humidity: 94%
Barometer: 30.09 inHg , 1019 hPa
Clouds: Clear
Visibility: 10 miles , 16 km
2019/07/16 11:45 KCGE 161145Z AUTO VRB03KT 10SM CLR 25/24 A3009 RMK A01
K2W6 - St Marys Co Reg Airport, Maryland
Distance from station: SSE 64mi, 103km
Updated: Tue, 16-Jul-2019 7:43am EDT
Clear
Clear
 Wind from calm
Wind: Calm
Temperature: 77°F , 25°C
Dew Point: 73°F , 23°C
Humidity: 89%
Barometer: 30.11 inHg , 1019.6 hPa
Clouds: Clear
Visibility: 10 miles , 16 km
2019/07/16 11:43 K2W6 161143Z AUTO 00000KT 10SM CLR 25/23 A3011 RMK AO1
 
KHGR - Hagerstown Reg Airport, Maryland
Distance from station: WNW 64mi, 103km
Updated: Tue, 16-Jul-2019 7:53am EDT
Clear
Clear
 Wind from S
Wind: S 7 mph , 11 km/h
Temperature: 73°F , 23°C
Dew Point: 66°F , 19°C
Humidity: 78%
Barometer: 30.12 inHg , 1020 hPa
Clouds: Clear
Visibility: 10 miles , 16 km
2019/07/16 11:53 KHGR 161153Z 17006KT 10SM CLR 23/19 A3012 RMK AO2 SLP201 T02330189 10233 20200 51011
KLNS - Lancaster Airport, Pennsylvania
Distance from station: NNE 64mi, 104km
Updated: Tue, 16-Jul-2019 7:53am EDT
Clear
Clear
 Wind from ENE
Wind: ENE 3 mph , 6 km/h
Temperature: 72°F , 22°C
Dew Point: 66°F , 19°C
Humidity: 83%
Barometer: 30.11 inHg , 1019.6 hPa
Clouds: Clear
Visibility: 9 miles , 14 km
2019/07/16 11:53 KLNS 161153Z 06003KT 9SM CLR 22/19 A3011 RMK AO2 SLP193 T02170189 10217 20183 53011
KILG - New Castle Airport, Wilmington, Delaware
Distance from station: ENE 66mi, 106km
Updated: Tue, 16-Jul-2019 7:51am EDT
Clear
Clear
 Wind from calm
Wind: Calm
Temperature: 75°F , 24°C
Dew Point: 68°F , 20°C
Humidity: 78%
Barometer: 30.11 inHg , 1019.6 hPa
Clouds: Clear
Visibility: 10 miles , 16 km
2019/07/16 11:51 KILG 161151Z 00000KT 10SM CLR 24/20 A3011 RMK AO2 SLP194 T02440200 10244 20194 52014
 
KDOV - Dover Air Force Base, Delaware
Distance from station: E 66mi, 107km
Updated: Tue, 16-Jul-2019 7:56am EDT
Clear
Clear
 Wind from S
Wind: S 6 mph , 9 km/h
Temperature: 77°F , 25°C
Dew Point: 72°F , 22°C
Humidity: 83%
Barometer: 30.10 inHg , 1019.3 hPa
Clouds: Clear
Visibility: 10 miles , 16 km
2019/07/16 11:56 KDOV 161156Z AUTO 18005KT 10SM CLR 25/22 A3010 RMK AO2 SLP196 T02500219 10250 20207 52013 $
KMDT - Harrisburg Intl Airport, Middletown, Pennsylvania
Distance from station: N 67mi, 107km
Updated: Tue, 16-Jul-2019 7:56am EDT
Clear
Clear
 Wind from E
Wind: E 3 mph , 6 km/h
Temperature: 75°F , 24°C
Dew Point: 64°F , 18°C
Humidity: 69%
Barometer: 30.09 inHg , 1019 hPa
Clouds: Clear
Visibility: 10 miles , 16 km
2019/07/16 11:56 KMDT 161156Z 09003KT 10SM CLR 24/18 A3009 RMK AO2 SLP188 T02390183 102
KMQS - Chester Co Carlson Airport, Coatesville, Pennsylvania
Distance from station: NE 68mi, 109km
Updated: Tue, 16-Jul-2019 7:35am EDT
Clear
Clear
 Wind from calm
Wind: Calm
Temperature: 73°F , 23°C
Dew Point: 68°F , 20°C
Humidity: 83%
Barometer: 30.13 inHg , 1020.3 hPa
Clouds: Clear
Visibility: 10 miles , 16 km
2019/07/16 11:35 KMQS 161135Z AUTO 00000KT 10SM CLR 23/20 A3013 RMK AO2
 
KCXY - Capital City Airport, Harrisburg, Pennsylvania
Distance from station: N 68mi, 110km
Updated: Tue, 16-Jul-2019 7:56am EDT
Clear
Clear
 Wind from WNW
Wind: WNW 3 mph , 6 km/h
Temperature: 73°F , 23°C
Dew Point: 63°F , 17°C
Humidity: 69%
Barometer: 30.10 inHg , 1019.3 hPa
Clouds: Clear
Visibility: 10 miles , 16 km
2019/07/16 11:56 KCXY 161156Z 30003KT 10SM CLR 23/17 A3010 RMK AO2 SLP191 T02330167 10233 20183 53006
KNHK - Patuxent River NAS, Maryland
Distance from station: SE 69mi, 111km
Updated: Tue, 16-Jul-2019 7:52am EDT
Few Clouds
Few Clouds
 Wind from WSW
Wind: WSW 5 mph , 7 km/h
Temperature: 81°F , 27°C
Heat Index: 88°F , 31°C
Dew Point: 77°F , 25°C
Humidity: 89%
Barometer: 30.10 inHg , 1019.3 hPa
Clouds: Few Clouds
Visibility: 10 miles , 16 km
Cloud details: Few Clouds 10000 ft
Few Clouds 26000 ft
2019/07/16 11:52 KNHK 161152Z 25004KT 10SM FEW100 FEW260 27/25 A3010 RMK AO2 SLP191 60000 70001 T02670250 10267 20233 53012
KMRB - Eastern WV Reg Airport/Shepherd Field, Martinsburg, West Virginia
Distance from station: W 70mi, 112km
Updated: Tue, 16-Jul-2019 7:53am EDT
Clear
Clear
 Wind from calm
Wind: Calm
Temperature: 72°F , 22°C
Dew Point: 66°F , 19°C
Humidity: 83%
Barometer: 30.11 inHg , 1019.6 hPa
Clouds: Clear
Visibility: 10 miles , 16 km
2019/07/16 11:53 KMRB 161153Z 00000KT 10SM CLR 22/19 A3011 RMK AO2 SLP190 T02220189 10222 20189 51012
 
KHWY - Warrenton-Fauquier Airport, Warrenton, Virginia
Distance from station: SW 71mi, 114km
Updated: Tue, 16-Jul-2019 7:35am EDT
Clear
Clear
 Wind from calm
Wind: Calm
Temperature: 77°F , 25°C
Dew Point: 70°F , 21°C
Humidity: 79%
Barometer: 30.10 inHg , 1019.3 hPa
Clouds: Clear
Visibility: 10 miles , 16 km
2019/07/16 11:35 KHWY 161135Z AUTO 00000KT 10SM CLR 25/21 A3010 RMK AO2 T02460210
KRMN - Stafford Regional Airport, Virginia
Distance from station: SW 71mi, 114km
Updated: Tue, 16-Jul-2019 7:35am EDT
Clear
Clear
 Wind from calm
Wind: Calm
Temperature: 77°F , 25°C
Dew Point: 77°F , 25°C
Humidity: 100%
Barometer: 30.13 inHg , 1020.3 hPa
Clouds: Clear
Visibility: 10 miles , 16 km
2019/07/16 11:35 KRMN 161135Z AUTO 00000KT 10SM CLR 25/25 A3013 RMK AO2 T02510251
KNUI - Webster Naval, St Inigoes, Maryland
Distance from station: S 76mi, 123km
Updated: Tue, 16-Jul-2019 7:53am EDT
Clear
Clear
 Wind from SSW
Wind: SSW 6 mph , 9 km/h
Temperature: 84°F , 29°C
Heat Index: 92°F , 33°C
Dew Point: 75°F , 24°C
Humidity: 74%
Barometer: 30.09 inHg , 1019 hPa
Clouds: Clear
Visibility: 10 miles , 16 km
2019/07/16 11:53 KNUI 161153Z AUTO 21005KT 10SM CLR 29/24 A3009 RMK AO2 SLP187 T02890244 10289 20256 53011
 
KEZF - Fredericksburg/Shan, Virginia
Distance from station: SSW 78mi, 126km
Updated: Tue, 16-Jul-2019 7:35am EDT
Clear
Clear
 Wind from calm
Wind: Calm
Temperature: 77°F , 25°C
Dew Point: 73°F , 23°C
Humidity: 89%
Barometer: 30.09 inHg , 1019 hPa
Clouds: Clear
Visibility: 10 miles , 16 km
2019/07/16 11:35 KEZF 161135Z AUTO 00000KT 10SM CLR 25/23 A3009 RMK AO2 T02460230
KOKV - Winchester Regional Airport, Virginia
Distance from station: W 78mi, 126km
Updated: Tue, 16-Jul-2019 7:35am EDT
Clear
Clear
 Wind from calm
Wind: Calm
Temperature: 72°F , 22°C
Dew Point: 68°F , 20°C
Humidity: 88%
Barometer: 30.13 inHg , 1020.3 hPa
Clouds: Clear
Visibility: 10 miles , 16 km
2019/07/16 11:35 KOKV 161135Z AUTO 00000KT 10SM CLR 22/20 A3013 RMK AO2
KCJR - Culpeper Regional Airport, Virginia
Distance from station: SW 79mi, 128km
Updated: Tue, 16-Jul-2019 7:35am EDT
Clear
Clear
 Wind from calm
Wind: Calm
Temperature: 75°F , 24°C
Dew Point: 72°F , 22°C
Humidity: 89%
Barometer: 30.11 inHg , 1019.6 hPa
Clouds: Clear
Visibility: 10 miles , 16 km
2019/07/16 11:35 KCJR 161135Z AUTO 00000KT 10SM CLR 24/22 A3011 RMK AO2 T02410220